Time;durP1;ratioP1;P1;durP2;ratioP2;P2;SDS_P1;SDS_P2;PMS_P1;PMS_P2;Temp;Humidity;BMP_temperature;BMP_pressure;BME280_temperature;BME280_humidity;BME280_pressure;Samples;Min_cycle;Max_cycle;Signal;HPM_P1;HPM_P2
2021/12/26 00:01:02;;;;;;;;;;;;;;;1.47;57.65;100749.88;5040825;28;19925;-62
2021/12/26 00:03:28;;;;;;;;;;;;;;;1.45;58.21;100745.66;5045667;28;20403;-62
2021/12/26 00:05:55;;;;;;;;;;;;;;;1.43;58.17;100756.78;5047827;28;19921;-62
2021/12/26 00:08:29;;;;;;;;;;;;;;;1.44;57.59;100746.69;5051586;28;19974;-62
2021/12/26 00:10:54;;;;;;;;;;;;;;;1.42;58.43;100757.00;5058505;28;20419;-62
2021/12/26 00:13:21;;;;;;;;;;;;;;;1.41;57.56;100752.56;5054471;28;19970;-62
2021/12/26 00:15:46;;;;;;;;;;;;;;;1.39;57.82;100749.19;5055230;28;19947;-62
2021/12/26 00:18:11;;;;;;;;;;;;;;;1.36;58.07;100747.66;5055125;28;20295;-62
2021/12/26 00:20:37;;;;;;;;;;;;;;;1.37;58.13;100743.03;5054463;28;19924;-62
2021/12/26 00:23:02;;;;;;;;;;;;;;;1.35;57.59;100735.06;5052529;28;19928;-61
2021/12/26 00:25:28;;;;;;;;;;;;;;;1.35;57.84;100739.69;5051143;28;19978;-62
2021/12/26 00:27:53;;;;;;;;;;;;;;;1.37;57.88;100734.84;5054114;28;19981;-62
2021/12/26 00:30:19;;;;;;;;;;;;;;;1.36;58.15;100739.47;5040442;28;20004;-62
2021/12/26 00:32:45;;;;;;;;;;;;;;;1.37;58.33;100732.94;5056653;28;20004;-62
2021/12/26 00:35:11;;;;;;;;;;;;;;;1.37;58.42;100726.63;5054164;28;19920;-62
2021/12/26 00:37:37;;;;;;;;;;;;;;;1.37;57.66;100722.00;5054997;28;19920;-62
2021/12/26 00:40:03;;;;;;;;;;;;;;;1.37;57.93;100722.00;5052481;28;19921;-62
2021/12/26 00:42:31;;;;;;;;;;;;;;;1.37;57.38;100719.28;5053517;28;19971;-62
2021/12/26 00:44:56;;;;;;;;;;;;;;;1.37;58.44;100729.38;5054271;28;19921;-62
2021/12/26 00:47:21;;;;;;;;;;;;;;;1.37;58.34;100721.16;5055688;28;20402;-63
2021/12/26 00:49:46;;;;;;;;;;;;;;;1.36;57.66;100720.31;5054878;28;19920;-62
2021/12/26 00:52:12;;;;;;;;;;;;;;;1.38;57.64;100722.88;5054230;28;19966;-62
2021/12/26 00:54:37;;;;;;;;;;;;;;;1.38;57.93;100726.47;5053353;28;19971;-62
2021/12/26 00:57:03;;;;;;;;;;;;;;;1.34;57.34;100733.38;5049919;28;19920;-62
2021/12/26 00:59:28;;;;;;;;;;;;;;;1.36;57.57;100724.97;5054922;28;19921;-62
2021/12/26 01:01:54;;;;;;;;;;;;;;;1.33;57.41;100728.06;5036942;28;20368;-62
2021/12/26 01:04:20;;;;;;;;;;;;;;;1.30;57.97;100728.47;5033337;28;19925;-62
2021/12/26 01:06:45;;;;;;;;;;;;;;;1.31;57.71;100733.75;5035573;28;20008;-62
2021/12/26 01:09:15;;;;;;;;;;;;;;;1.33;57.69;100730.81;5033363;28;19928;-62
2021/12/26 01:11:47;;;;;;;;;;;;;;;1.34;57.52;100733.38;5035478;28;19970;-62
2021/12/26 01:14:13;;;;;;;;;;;;;;;1.36;57.63;100739.47;5028993;28;19928;-62
2021/12/26 01:16:39;;;;;;;;;;;;;;;1.38;58.07;100733.81;5033974;28;19926;-62
2021/12/26 01:19:13;;;;;;;;;;;;;;;1.39;57.92;100735.50;5036404;28;19928;-62
2021/12/26 01:21:39;;;;;;;;;;;;;;;1.38;58.07;100728.34;5029145;28;19937;-62
2021/12/26 01:24:06;;;;;;;;;;;;;;;1.39;58.04;100730.03;5033425;28;20289;-62
2021/12/26 01:26:32;;;;;;;;;;;;;;;1.40;58.05;100731.72;5033022;28;19968;-62
2021/12/26 01:28:58;;;;;;;;;;;;;;;1.41;57.67;100731.50;5022102;28;19963;-62
2021/12/26 01:31:24;;;;;;;;;;;;;;;1.41;57.86;100720.56;5033379;28;20003;-62
2021/12/26 01:33:51;;;;;;;;;;;;;;;1.43;57.97;100720.41;5020359;28;19928;-62
2021/12/26 01:36:17;;;;;;;;;;;;;;;1.42;57.44;100718.72;5027534;28;19921;-62
2021/12/26 01:38:42;;;;;;;;;;;;;;;1.42;57.42;100724.19;5013671;28;20373;-62
2021/12/26 01:41:10;;;;;;;;;;;;;;;1.38;57.62;100712.78;5043520;28;19917;-63
2021/12/26 01:43:39;;;;;;;;;;;;;;;1.39;58.12;100714.47;5049984;28;19917;-62
2021/12/26 01:46:05;;;;;;;;;;;;;;;1.38;58.24;100718.25;5014540;28;19928;-62
2021/12/26 01:48:30;;;;;;;;;;;;;;;1.39;57.44;100716.38;5022095;28;20012;-62
2021/12/26 01:50:55;;;;;;;;;;;;;;;1.41;57.93;100714.25;5020562;28;19971;-62
2021/12/26 01:53:23;;;;;;;;;;;;;;;1.41;58.24;100714.25;5024070;28;20364;-62
2021/12/26 01:55:49;;;;;;;;;;;;;;;1.40;57.32;100715.31;5028095;28;20373;-63
2021/12/26 01:58:24;;;;;;;;;;;;;;;1.38;57.90;100722.88;5038532;28;19971;-63
2021/12/26 02:00:54;;;;;;;;;;;;;;;1.38;57.47;100718.25;5046501;28;19920;-62
2021/12/26 02:03:20;;;;;;;;;;;;;;;1.40;57.26;100718.06;5052292;28;19927;-64
2021/12/26 02:05:45;;;;;;;;;;;;;;;1.40;57.04;100716.16;5052019;28;20015;-62
2021/12/26 02:08:11;;;;;;;;;;;;;;;1.40;57.05;100715.31;5054032;28;19917;-62
2021/12/26 02:10:36;;;;;;;;;;;;;;;1.39;57.33;100706.28;5047802;28;20003;-63
2021/12/26 02:13:01;;;;;;;;;;;;;;;1.39;57.37;100713.63;5051697;28;19921;-63
2021/12/26 02:15:26;;;;;;;;;;;;;;;1.38;57.47;100718.25;5052181;28;19920;-63
2021/12/26 02:17:52;;;;;;;;;;;;;;;1.40;57.46;100718.88;5053327;28;19971;-62
2021/12/26 02:20:27;;;;;;;;;;;;;;;1.41;57.54;100717.00;5051142;28;20007;-62
2021/12/26 02:22:58;;;;;;;;;;;;;;;1.42;57.32;100707.78;5053676;28;19999;-62
2021/12/26 02:28:17;;;;;;;;;;;;;;;1.42;57.43;100702.31;5017360;28;19928;-62
2021/12/26 02:30:43;;;;;;;;;;;;;;;1.42;56.95;100705.03;5052168;28;19912;-61
2021/12/26 02:33:11;;;;;;;;;;;;;;;1.41;57.59;100698.69;5051176;28;19927;-62
2021/12/26 02:35:37;;;;;;;;;;;;;;;1.41;56.95;100703.31;5051822;28;19980;-62
2021/12/26 02:38:02;;;;;;;;;;;;;;;1.41;57.71;100695.13;5032106;28;19924;-61
2021/12/26 02:40:27;;;;;;;;;;;;;;;1.39;57.92;100689.03;5051407;28;19936;-62
2021/12/26 02:42:52;;;;;;;;;;;;;;;1.36;57.77;100689.41;5052334;28;19921;-62
2021/12/26 02:45:18;;;;;;;;;;;;;;;1.34;56.75;100683.31;5051963;28;19924;-62
2021/12/26 02:47:45;;;;;;;;;;;;;;;1.32;57.86;100688.94;5050462;28;19927;-63
2021/12/26 02:50:13;;;;;;;;;;;;;;;1.32;57.80;100688.09;5053423;28;19916;-62
2021/12/26 02:52:39;;;;;;;;;;;;;;;1.30;56.99;100693.78;5052503;28;19979;-62
2021/12/26 02:55:07;;;;;;;;;;;;;;;1.31;57.96;100691.91;5050307;28;19925;-62
2021/12/26 02:57:32;;;;;;;;;;;;;;;1.30;57.52;100690.19;5045737;28;19921;-62
2021/12/26 03:00:07;;;;;;;;;;;;;;;1.30;57.83;100693.78;4985620;28;1736106;-62
2021/12/26 03:02:32;;;;;;;;;;;;;;;1.31;57.17;100700.94;5027892;28;20281;-62
2021/12/26 03:04:57;;;;;;;;;;;;;;;1.32;58.05;100696.31;5015011;28;20071;-62
2021/12/26 03:07:22;;;;;;;;;;;;;;;1.34;57.92;100696.97;5026807;28;19925;-63
2021/12/26 03:10:00;;;;;;;;;;;;;;;1.34;57.60;100699.72;5013998;28;19933;-62
2021/12/26 03:12:30;;;;;;;;;;;;;;;1.33;57.79;100690.63;5013616;28;19944;-61
2021/12/26 03:14:55;;;;;;;;;;;;;;;1.35;57.81;100698.66;5027646;28;20007;-63
2021/12/26 03:17:21;;;;;;;;;;;;;;;1.36;57.36;100683.94;5031005;28;20377;-62
2021/12/26 03:19:46;;;;;;;;;;;;;;;1.37;57.24;100683.72;5025357;28;19925;-62
2021/12/26 03:22:11;;;;;;;;;;;;;;;1.36;57.55;100676.56;5024044;28;19948;-62
2021/12/26 03:24:38;;;;;;;;;;;;;;;1.34;57.17;100675.09;5013217;28;19921;-62
2021/12/26 03:27:04;;;;;;;;;;;;;;;1.35;57.28;100668.56;5021391;28;19963;-62
2021/12/26 03:29:30;;;;;;;;;;;;;;;1.33;57.14;100656.97;5013691;28;19925;-62
2021/12/26 03:31:55;;;;;;;;;;;;;;;1.32;57.36;100656.13;5020140;28;20088;-62
2021/12/26 03:34:20;;;;;;;;;;;;;;;1.32;57.87;100658.88;5032612;28;19969;-62
2021/12/26 03:36:50;;;;;;;;;;;;;;;1.31;57.06;100661.81;5026718;28;19917;-62
2021/12/26 03:39:15;;;;;;;;;;;;;;;1.30;57.36;100665.56;5026817;28;20339;-62
2021/12/26 03:41:40;;;;;;;;;;;;;;;1.29;58.06;100663.88;5031232;28;19917;-62
2021/12/26 03:44:05;;;;;;;;;;;;;;;1.27;57.03;100668.72;5030616;28;19960;-61
2021/12/26 03:46:31;;;;;;;;;;;;;;;1.26;57.51;100669.75;5014271;28;20406;-61
2021/12/26 03:48:59;;;;;;;;;;;;;;;1.25;57.29;100676.25;5029822;28;19917;-62
2021/12/26 03:51:24;;;;;;;;;;;;;;;1.22;57.16;100672.06;5030752;28;19967;-62
2021/12/26 03:53:49;;;;;;;;;;;;;;;1.19;57.09;100672.44;5033099;28;20368;-62
2021/12/26 03:56:14;;;;;;;;;;;;;;;1.19;57.37;100665.06;5022340;28;19953;-62
2021/12/26 03:58:42;;;;;;;;;;;;;;;1.20;57.59;100671.38;5039543;28;19959;-62
2021/12/26 04:01:07;;;;;;;;;;;;;;;1.19;57.30;100664.22;5043630;28;20014;-62
2021/12/26 04:03:32;;;;;;;;;;;;;;;1.17;57.68;100667.16;5031030;28;19972;-62
2021/12/26 04:05:57;;;;;;;;;;;;;;;1.17;57.37;100658.09;5025164;28;19933;-62
2021/12/26 04:08:23;;;;;;;;;;;;;;;1.15;57.50;100661.03;5015383;28;19976;-62
2021/12/26 04:10:48;;;;;;;;;;;;;;;1.16;57.30;100661.88;5020044;28;19983;-62
2021/12/26 04:13:13;;;;;;;;;;;;;;;1.14;58.22;100659.38;5017038;28;19964;-62
2021/12/26 04:15:39;;;;;;;;;;;;;;;1.14;57.72;100653.91;5032906;28;19921;-62
2021/12/26 04:18:04;;;;;;;;;;;;;;;1.16;57.80;100659.16;5024856;28;19922;-62
2021/12/26 04:20:29;;;;;;;;;;;;;;;1.13;57.95;100654.91;5012236;28;19945;-62
2021/12/26 04:22:54;;;;;;;;;;;;;;;1.14;57.90;100662.09;5029305;28;19963;-62
2021/12/26 04:25:20;;;;;;;;;;;;;;;1.12;57.61;100655.13;5024584;28;19921;-61
2021/12/26 04:27:45;;;;;;;;;;;;;;;1.11;57.46;100662.47;5025558;28;19925;-62
2021/12/26 04:30:12;;;;;;;;;;;;;;;1.09;58.27;100659.09;5017720;28;19976;-62
2021/12/26 04:32:37;;;;;;;;;;;;;;;1.08;58.07;100662.03;5017442;28;19921;-62
2021/12/26 04:35:05;;;;;;;;;;;;;;;1.07;57.40;100669.38;5031343;28;19917;-61
2021/12/26 04:37:30;;;;;;;;;;;;;;;1.07;58.30;100657.59;5029713;28;19925;-62
2021/12/26 04:39:56;;;;;;;;;;;;;;;1.06;58.07;100654.03;5019163;28;19966;-62
2021/12/26 04:42:21;;;;;;;;;;;;;;;1.03;57.98;100651.69;5012776;28;19924;-61
2021/12/26 04:44:48;;;;;;;;;;;;;;;1.02;58.03;100644.50;5017201;28;20295;-62
2021/12/26 04:47:13;;;;;;;;;;;;;;;1.02;57.42;100647.22;5030732;28;20380;-62
2021/12/26 04:49:41;;;;;;;;;;;;;;;1.01;57.83;100642.81;5014883;28;19960;-62
2021/12/26 04:52:07;;;;;;;;;;;;;;;1.00;57.60;100638.41;5030610;28;20287;-62
2021/12/26 04:54:32;;;;;;;;;;;;;;;0.98;58.00;100632.28;5030194;28;20020;-62
2021/12/26 04:57:03;;;;;;;;;;;;;;;0.98;57.73;100646.81;5028754;28;19947;-64
2021/12/26 04:59:28;;;;;;;;;;;;;;;0.98;57.73;100645.94;5036892;28;19990;-61
2021/12/26 05:01:53;;;;;;;;;;;;;;;0.97;57.66;100642.34;5051963;28;19944;-61
2021/12/26 05:04:19;;;;;;;;;;;;;;;0.97;57.75;100645.09;5054183;28;19920;-61
2021/12/26 05:06:44;;;;;;;;;;;;;;;0.96;58.33;100645.31;5054673;28;19963;-62
2021/12/26 05:09:09;;;;;;;;;;;;;;;0.97;57.67;100638.78;5053821;28;19967;-62
2021/12/26 05:11:37;;;;;;;;;;;;;;;0.95;57.73;100632.69;5054544;28;20008;-62
2021/12/26 05:14:03;;;;;;;;;;;;;;;0.93;57.74;100637.50;5053677;28;19928;-62
2021/12/26 05:16:28;;;;;;;;;;;;;;;0.94;58.04;100633.72;5053794;28;19924;-62
2021/12/26 05:18:56;;;;;;;;;;;;;;;0.91;58.03;100637.69;5053759;28;19920;-62
2021/12/26 05:21:21;;;;;;;;;;;;;;;0.91;58.23;100637.69;5044005;28;19921;-62
2021/12/26 05:23:46;;;;;;;;;;;;;;;0.91;58.26;100636.84;5054197;28;19927;-63
2021/12/26 05:26:12;;;;;;;;;;;;;;;0.90;57.91;100630.50;5053263;28;20019;-62
2021/12/26 05:28:37;;;;;;;;;;;;;;;0.87;57.55;100632.81;5055071;28;19920;-62
2021/12/26 05:31:05;;;;;;;;;;;;;;;0.87;58.15;100627.34;5050525;28;19944;-62
2021/12/26 05:33:30;;;;;;;;;;;;;;;0.86;58.40;100625.63;5053616;28;19913;-62
2021/12/26 05:35:55;;;;;;;;;;;;;;;0.82;57.98;100625.19;5053439;28;19921;-62
2021/12/26 05:38:21;;;;;;;;;;;;;;;0.83;57.90;100615.97;5048760;28;19925;-62
2021/12/26 05:40:46;;;;;;;;;;;;;;;0.83;58.10;100613.25;5053300;28;19921;-62
2021/12/26 05:43:11;;;;;;;;;;;;;;;0.85;57.59;100615.75;5052121;28;19921;-62
2021/12/26 05:45:38;;;;;;;;;;;;;;;0.85;58.10;100613.03;5054825;28;19940;-62
2021/12/26 05:48:03;;;;;;;;;;;;;;;0.82;57.70;100608.78;5050450;28;19999;-62
2021/12/26 05:50:28;;;;;;;;;;;;;;;0.83;57.95;100615.13;5052737;28;20055;-62
2021/12/26 05:52:53;;;;;;;;;;;;;;;0.83;57.60;100606.94;5053736;28;19995;-62
2021/12/26 05:55:21;;;;;;;;;;;;;;;0.81;57.72;100606.25;5053019;28;20023;-62
2021/12/26 05:57:56;;;;;;;;;;;;;;;0.80;57.61;100604.59;5053407;28;19921;-62
2021/12/26 06:00:21;;;;;;;;;;;;;;;0.80;57.92;100610.03;5049061;28;19921;-63
2021/12/26 06:02:49;;;;;;;;;;;;;;;0.80;57.83;100602.69;5032964;28;19925;-62
2021/12/26 06:05:14;;;;;;;;;;;;;;;0.80;57.54;100593.66;5028826;28;19921;-62
2021/12/26 06:07:40;;;;;;;;;;;;;;;0.78;57.67;100595.72;5033900;28;19959;-62
2021/12/26 06:10:05;;;;;;;;;;;;;;;0.76;58.31;100598.66;5034194;28;19924;-62
2021/12/26 06:12:31;;;;;;;;;;;;;;;0.73;58.07;100597.16;5032048;28;19928;-62
2021/12/26 06:15:02;;;;;;;;;;;;;;;0.69;57.57;100595.84;5034198;28;19928;-62
2021/12/26 06:17:27;;;;;;;;;;;;;;;0.68;57.91;100591.44;5032396;28;19921;-63
2021/12/26 06:19:52;;;;;;;;;;;;;;;0.70;58.30;100597.53;5033537;28;19917;-62
2021/12/26 06:22:17;;;;;;;;;;;;;;;0.69;57.67;100598.59;5030580;28;19932;-62
2021/12/26 06:24:42;;;;;;;;;;;;;;;0.68;57.69;100596.91;5030803;28;20008;-62
2021/12/26 06:27:08;;;;;;;;;;;;;;;0.69;58.14;100597.75;5032447;28;20030;-62
2021/12/26 06:29:33;;;;;;;;;;;;;;;0.66;57.94;100601.69;5032956;28;19921;-63
2021/12/26 06:31:58;;;;;;;;;;;;;;;0.67;58.16;100602.56;5034000;28;19932;-63
2021/12/26 06:34:23;;;;;;;;;;;;;;;0.68;57.97;100601.53;5033286;28;19917;-62
2021/12/26 06:36:48;;;;;;;;;;;;;;;0.67;58.23;100606.16;5032206;28;20015;-63
2021/12/26 06:39:14;;;;;;;;;;;;;;;0.66;58.07;100601.69;5032407;28;20278;-62
2021/12/26 06:41:39;;;;;;;;;;;;;;;0.62;58.21;100608.59;5027670;28;20331;-62
2021/12/26 06:44:06;;;;;;;;;;;;;;;0.62;58.26;100608.59;5033593;28;19917;-62
2021/12/26 06:46:32;;;;;;;;;;;;;;;0.61;57.96;100612.38;5030819;28;20031;-62
2021/12/26 06:48:58;;;;;;;;;;;;;;;0.60;58.18;100613.41;5032892;28;20293;-62
2021/12/26 06:51:23;;;;;;;;;;;;;;;0.59;58.07;100614.47;5033138;28;19927;-62
2021/12/26 06:53:48;;;;;;;;;;;;;;;0.59;58.04;100608.13;5033120;28;20292;-62
2021/12/26 06:56:13;;;;;;;;;;;;;;;0.57;58.49;100607.50;5032252;28;20369;-62
2021/12/26 06:58:38;;;;;;;;;;;;;;;0.57;58.12;100604.75;5030321;28;19966;-62
2021/12/26 07:01:06;;;;;;;;;;;;;;;0.57;58.15;100599.31;5040932;28;19920;-62
2021/12/26 07:03:32;;;;;;;;;;;;;;;0.56;58.31;100601.19;5051484;28;20372;-62
2021/12/26 07:05:57;;;;;;;;;;;;;;;0.54;58.10;100595.06;5050703;28;20000;-62
2021/12/26 07:08:22;;;;;;;;;;;;;;;0.52;58.20;100601.78;5050088;28;19928;-62
2021/12/26 07:10:56;;;;;;;;;;;;;;;0.53;58.04;100598.00;5052208;28;20261;-62
2021/12/26 07:13:21;;;;;;;;;;;;;;;0.55;58.07;100596.78;5053359;28;20288;-62
2021/12/26 07:15:46;;;;;;;;;;;;;;;0.55;57.93;100594.03;5050954;28;19933;-62
2021/12/26 07:18:12;;;;;;;;;;;;;;;0.56;58.38;100603.09;5051999;28;20070;-62
2021/12/26 07:20:37;;;;;;;;;;;;;;;0.55;58.39;100602.25;5051440;28;19921;-63
2021/12/26 07:23:03;;;;;;;;;;;;;;;0.56;58.47;100606.66;5052282;28;19917;-62
2021/12/26 07:25:28;;;;;;;;;;;;;;;0.57;58.25;100599.31;5045190;28;19924;-62
2021/12/26 07:27:53;;;;;;;;;;;;;;;0.56;58.10;100598.47;5051470;28;20015;-62
2021/12/26 07:30:18;;;;;;;;;;;;;;;0.56;58.73;100597.63;5052150;28;19964;-62
2021/12/26 07:32:44;;;;;;;;;;;;;;;0.56;58.56;100601.19;5051310;28;19928;-62
2021/12/26 07:35:10;;;;;;;;;;;;;;;0.53;58.68;100593.38;5040310;28;19921;-62
2021/12/26 07:37:35;;;;;;;;;;;;;;;0.54;58.82;100594.22;5044478;28;20718;-62
2021/12/26 07:40:00;;;;;;;;;;;;;;;0.56;58.42;100589.44;5052136;28;19921;-62
2021/12/26 07:42:26;;;;;;;;;;;;;;;0.56;58.25;100595.72;5044711;28;19975;-62
2021/12/26 07:44:51;;;;;;;;;;;;;;;0.55;58.13;100598.63;5051835;28;20318;-62
2021/12/26 07:47:19;;;;;;;;;;;;;;;0.52;58.20;100597.16;5050710;28;19931;-62
2021/12/26 07:49:44;;;;;;;;;;;;;;;0.51;58.67;100598.19;5051502;28;19928;-62
2021/12/26 07:52:13;;;;;;;;;;;;;;;0.49;58.56;100598.38;5052725;28;19917;-62
2021/12/26 07:54:39;;;;;;;;;;;;;;;0.51;58.37;100595.44;5052032;28;19932;-63
2021/12/26 07:57:06;;;;;;;;;;;;;;;0.53;58.42;100603.47;5048241;28;19929;-62
2021/12/26 07:59:31;;;;;;;;;;;;;;;0.53;58.65;100604.31;5051811;28;20008;-63
2021/12/26 08:01:57;;;;;;;;;;;;;;;0.52;58.30;100605.34;5049341;28;19964;-63
2021/12/26 08:04:22;;;;;;;;;;;;;;;0.51;58.03;100611.84;5051254;28;19940;-63
2021/12/26 08:06:47;;;;;;;;;;;;;;;0.49;58.61;100613.91;5048168;28;19928;-62
2021/12/26 08:09:12;;;;;;;;;;;;;;;0.50;58.22;100621.06;5052550;28;20004;-63
2021/12/26 08:11:37;;;;;;;;;;;;;;;0.51;58.74;100608.25;5051931;28;19920;-62
2021/12/26 08:14:03;;;;;;;;;;;;;;;0.52;58.30;100610.81;5052366;28;19921;-62
2021/12/26 08:16:31;;;;;;;;;;;;;;;0.53;58.53;100607.03;5050968;28;20023;-61
2021/12/26 08:18:56;;;;;;;;;;;;;;;0.56;57.98;100609.38;5051217;28;19927;-61
2021/12/26 08:21:41;;;;;;;;;;;;;;;0.54;58.32;100611.44;5051896;28;20047;-63
2021/12/26 08:24:06;;;;;;;;;;;;;;;0.56;58.26;100609.38;5046442;28;19932;-61
2021/12/26 08:26:35;;;;;;;;;;;;;;;0.56;58.33;100606.66;5046331;28;19928;-61
2021/12/26 08:29:00;;;;;;;;;;;;;;;0.58;58.71;100611.91;5048854;28;19921;-61
2021/12/26 08:31:25;;;;;;;;;;;;;;;0.57;58.85;100604.75;5066423;28;19931;-62
2021/12/26 08:33:51;;;;;;;;;;;;;;;0.57;58.78;100611.06;5054563;28;19921;-60
2021/12/26 08:36:20;;;;;;;;;;;;;;;0.60;58.83;100598.91;5053929;28;19927;-61
2021/12/26 08:38:45;;;;;;;;;;;;;;;0.62;58.46;100603.13;5052632;28;20395;-62
2021/12/26 08:41:10;;;;;;;;;;;;;;;0.65;58.76;100616.41;5051915;28;19921;-61
2021/12/26 08:43:35;;;;;;;;;;;;;;;0.68;58.94;100599.63;5047692;28;19952;-61
2021/12/26 08:46:01;;;;;;;;;;;;;;;0.70;59.01;100599.44;5045803;28;19967;-61
2021/12/26 08:48:26;;;;;;;;;;;;;;;0.83;59.69;100604.19;5052477;28;19920;-60
2021/12/26 08:50:55;;;;;;;;;;;;;;;0.89;59.44;100597.94;5052136;28;19955;-61
2021/12/26 08:53:22;;;;;;;;;;;;;;;0.91;58.98;100604.06;5053844;28;20013;-62
2021/12/26 08:55:47;;;;;;;;;;;;;;;0.94;58.54;100598.19;5049396;28;19921;-63
2021/12/26 08:58:12;;;;;;;;;;;;;;;0.95;59.06;100602.63;5047983;28;20024;-62
2021/12/26 09:00:38;;;;;;;;;;;;;;;0.94;59.29;100590.84;5046861;28;19928;-62
2021/12/26 09:03:05;;;;;;;;;;;;;;;0.95;58.63;100597.16;5054422;28;19921;-62
2021/12/26 09:05:33;;;;;;;;;;;;;;;0.97;58.70;100606.00;5051737;28;20344;-61
2021/12/26 09:07:59;;;;;;;;;;;;;;;0.97;58.41;100609.56;5054020;28;19921;-61
2021/12/26 09:10:24;;;;;;;;;;;;;;;0.99;58.51;100593.00;5053456;28;19936;-62
2021/12/26 09:12:49;;;;;;;;;;;;;;;1.00;59.11;100588.38;5055097;28;19916;-62
2021/12/26 09:15:15;;;;;;;;;;;;;;;0.99;58.48;100584.78;5045758;28;20291;-62
2021/12/26 09:17:41;;;;;;;;;;;;;;;1.01;59.40;100588.16;5043134;28;19925;-63
2021/12/26 09:20:07;;;;;;;;;;;;;;;1.04;59.17;100598.69;5049918;28;19921;-62
2021/12/26 09:22:33;;;;;;;;;;;;;;;1.02;59.02;100592.56;5053737;28;19917;-62
2021/12/26 09:24:59;;;;;;;;;;;;;;;1.01;59.61;100592.78;5053791;28;19952;-62
2021/12/26 09:27:24;;;;;;;;;;;;;;;1.05;59.45;100597.66;5055192;28;20015;-62
2021/12/26 09:29:52;;;;;;;;;;;;;;;1.06;59.35;100604.84;5053575;28;20027;-63
2021/12/26 09:32:20;;;;;;;;;;;;;;;1.07;59.57;100598.31;5054136;28;19920;-63
2021/12/26 09:34:45;;;;;;;;;;;;;;;1.09;58.93;100598.94;5050883;28;19967;-62
2021/12/26 09:37:10;;;;;;;;;;;;;;;1.10;59.39;100594.31;5049970;28;19924;-62
2021/12/26 09:39:36;;;;;;;;;;;;;;;1.10;59.40;100605.25;5048492;28;19999;-63
2021/12/26 09:42:02;;;;;;;;;;;;;;;1.09;60.01;100603.56;5044647;28;19924;-63
2021/12/26 09:44:30;;;;;;;;;;;;;;;1.09;59.82;100600.84;5049627;28;19928;-64
2021/12/26 09:46:55;;;;;;;;;;;;;;;1.12;59.71;100608.66;5053808;28;19917;-65
2021/12/26 09:49:21;;;;;;;;;;;;;;;1.16;60.11;100601.75;5053434;28;19927;-67
2021/12/26 09:51:52;;;;;;;;;;;;;;;1.18;59.57;100611.44;5068264;28;19927;-67
2021/12/26 09:54:17;;;;;;;;;;;;;;;1.17;60.06;100601.53;5052891;28;19921;-67
2021/12/26 09:56:42;;;;;;;;;;;;;;;1.20;59.43;100600.31;5048300;28;20736;-66
2021/12/26 09:59:15;;;;;;;;;;;;;;;1.23;60.06;100594.44;5052119;28;20015;-63
2021/12/26 10:01:48;;;;;;;;;;;;;;;1.26;59.97;100598.66;5048245;28;19929;-65
2021/12/26 10:04:32;;;;;;;;;;;;;;;1.29;60.26;100592.78;5042851;28;19933;-67
2021/12/26 10:06:57;;;;;;;;;;;;;;;1.32;60.03;100587.78;5046493;28;19921;-66
2021/12/26 10:09:23;;;;;;;;;;;;;;;1.34;60.22;100584.88;5049432;28;19931;-66
2021/12/26 10:11:49;;;;;;;;;;;;;;;1.37;59.95;100576.22;5051048;28;20020;-66
2021/12/26 10:14:18;;;;;;;;;;;;;;;1.38;60.48;100569.75;5051151;28;19920;-64
2021/12/26 10:16:51;;;;;;;;;;;;;;;1.39;60.57;100572.25;5047673;28;19925;-63
2021/12/26 10:19:16;;;;;;;;;;;;;;;1.42;60.52;100568.28;5050905;28;20430;-64
2021/12/26 10:21:43;;;;;;;;;;;;;;;1.41;60.42;100561.13;5049665;28;19921;-66
2021/12/26 10:24:13;;;;;;;;;;;;;;;1.41;60.27;100552.91;5054233;28;20136;-67
2021/12/26 10:27:01;;;;;;;;;;;;;;;1.42;60.62;100555.47;5048265;28;19921;-66
2021/12/26 10:29:26;;;;;;;;;;;;;;;1.44;60.01;100557.97;5053122;28;20372;-65
2021/12/26 10:31:54;;;;;;;;;;;;;;;1.44;59.97;100552.50;5051655;28;19928;-65
2021/12/26 10:34:28;;;;;;;;;;;;;;;1.48;60.16;100545.59;5047342;28;20361;-65
2021/12/26 10:36:54;;;;;;;;;;;;;;;1.50;60.34;100549.00;5040054;28;19920;-65
2021/12/26 10:39:21;;;;;;;;;;;;;;;1.52;60.29;100548.78;5050914;28;19929;-66
2021/12/26 10:41:48;;;;;;;;;;;;;;;1.54;60.86;100549.44;5046767;28;19928;-65
2021/12/26 10:44:23;;;;;;;;;;;;;;;1.54;61.02;100542.06;5052904;28;20395;-64
2021/12/26 10:46:48;;;;;;;;;;;;;;;1.54;60.94;100544.81;5052143;28;19932;-63
2021/12/26 10:49:28;;;;;;;;;;;;;;;1.57;60.75;100543.53;5050173;28;19950;-63
2021/12/26 10:51:53;;;;;;;;;;;;;;;1.58;60.53;100537.88;5050990;28;19971;-64
2021/12/26 10:54:20;;;;;;;;;;;;;;;1.60;60.96;100535.78;5048915;28;19971;-64
2021/12/26 10:57:02;;;;;;;;;;;;;;;1.62;61.09;100527.38;5050974;28;20380;-63
2021/12/26 10:59:28;;;;;;;;;;;;;;;1.64;61.03;100537.06;5047226;28;20364;-63
2021/12/26 11:01:54;;;;;;;;;;;;;;;1.65;60.68;100533.28;5048166;28;19986;-63
2021/12/26 11:04:20;;;;;;;;;;;;;;;1.80;63.62;100530.41;5046082;28;20035;-63
2021/12/26 11:07:05;;;;;;;;;;;;;;;1.86;62.04;100515.06;5051813;28;20012;-64
2021/12/26 11:09:30;;;;;;;;;;;;;;;1.88;61.76;100518.44;5051078;28;19925;-63
2021/12/26 11:12:00;;;;;;;;;;;;;;;1.91;62.12;100504.34;5052652;28;19928;-63
2021/12/26 11:14:25;;;;;;;;;;;;;;;1.92;61.24;100522.44;5051061;28;19920;-66
2021/12/26 11:16:51;;;;;;;;;;;;;;;1.92;61.08;100514.22;5051508;28;20045;-64
2021/12/26 11:19:35;;;;;;;;;;;;;;;1.80;61.58;100503.03;5052302;28;19932;-63
2021/12/26 11:22:00;;;;;;;;;;;;;;;1.92;61.85;100516.97;5046213;28;20416;-64
2021/12/26 11:24:25;;;;;;;;;;;;;;;1.92;61.96;100525.19;5051783;28;19920;-64
2021/12/26 11:26:50;;;;;;;;;;;;;;;1.92;61.80;100514.22;5051745;28;20320;-62
2021/12/26 11:29:16;;;;;;;;;;;;;;;1.93;61.50;100507.72;5046279;28;19928;-63
2021/12/26 11:31:41;;;;;;;;;;;;;;;1.93;61.63;100514.06;5047871;28;19944;-63
2021/12/26 11:34:09;;;;;;;;;;;;;;;1.93;62.03;100510.47;5047293;28;19927;-63
2021/12/26 11:36:34;;;;;;;;;;;;;;;1.95;61.34;100505.63;5040479;28;19921;-62
2021/12/26 11:39:04;;;;;;;;;;;;;;;1.98;61.27;100496.16;5044634;28;19929;-62
2021/12/26 11:41:38;;;;;;;;;;;;;;;1.97;61.85;100503.53;5042278;28;19921;-62
2021/12/26 11:44:20;;;;;;;;;;;;;;;1.99;61.31;100495.94;5046749;28;19927;-64
2021/12/26 11:46:58;;;;;;;;;;;;;;;2.01;62.03;100507.56;5049365;28;19950;-65
2021/12/26 11:49:49;;;;;;;;;;;;;;;2.02;61.49;100511.13;5045043;28;20352;-62
2021/12/26 11:52:33;;;;;;;;;;;;;;;2.00;61.66;100513.22;5029110;28;19928;-63
2021/12/26 11:55:13;;;;;;;;;;;;;;;2.00;61.53;100507.75;5047702;28;19920;-62
2021/12/26 11:57:44;;;;;;;;;;;;;;;2.01;61.89;100504.81;5049199;28;20023;-63
2021/12/26 12:00:10;;;;;;;;;;;;;;;2.03;61.59;100493.66;5045171;28;19937;-63
2021/12/26 12:02:42;;;;;;;;;;;;;;;2.03;61.62;100489.00;5041902;28;19921;-63
2021/12/26 12:05:12;;;;;;;;;;;;;;;2.04;62.50;100487.94;5046655;28;20004;-62
2021/12/26 12:07:43;;;;;;;;;;;;;;;2.07;61.70;100493.03;5047411;28;19928;-63
2021/12/26 12:10:27;;;;;;;;;;;;;;;2.09;62.33;100501.88;5051090;28;19921;-63
2021/12/26 12:12:52;;;;;;;;;;;;;;;2.10;61.74;100503.56;5045990;28;19925;-63
2021/12/26 12:15:37;;;;;;;;;;;;;;;2.11;62.20;100494.28;5050091;28;19936;-63
2021/12/26 12:18:10;;;;;;;;;;;;;;;2.12;62.60;100487.78;5042348;28;20384;-64
2021/12/26 12:20:35;;;;;;;;;;;;;;;2.14;62.33;100480.19;5052109;28;20348;-64
2021/12/26 12:23:03;;;;;;;;;;;;;;;2.13;62.62;100481.25;5049048;28;20015;-64
2021/12/26 12:25:35;;;;;;;;;;;;;;;2.16;61.94;100486.31;5047787;28;20376;-63
2021/12/26 12:28:14;;;;;;;;;;;;;;;2.17;62.03;100492.63;5040840;28;20012;-64
2021/12/26 12:30:44;;;;;;;;;;;;;;;2.19;62.48;100496.84;5040714;28;20380;-63
2021/12/26 12:33:21;;;;;;;;;;;;;;;2.20;63.01;100495.81;5046890;28;20384;-64
2021/12/26 12:35:55;;;;;;;;;;;;;;;2.23;63.24;100491.78;5050896;28;19925;-64
2021/12/26 12:38:22;;;;;;;;;;;;;;;2.25;63.07;100484.22;5047642;28;20376;-64
2021/12/26 12:40:47;;;;;;;;;;;;;;;2.27;63.19;100478.53;5050909;28;20415;-61
2021/12/26 12:43:15;;;;;;;;;;;;;;;2.28;62.88;100472.00;5051270;28;19987;-62
2021/12/26 12:45:52;;;;;;;;;;;;;;;2.30;63.22;100469.91;5053564;28;19928;-62
2021/12/26 12:48:40;;;;;;;;;;;;;;;2.30;62.82;100458.97;5054816;28;19924;-62
2021/12/26 12:51:18;;;;;;;;;;;;;;;2.30;63.29;100453.47;5050039;28;20368;-62